sensor_id;sensor_type;location;lat;lon;timestamp;temperature;humidity
13992;DHT22;7070;53.586;9.692;2023-05-07T00:00:21;11.00;75.10
13992;DHT22;7070;53.586;9.692;2023-05-07T00:02:48;10.90;75.10
13992;DHT22;7070;53.586;9.692;2023-05-07T00:05:16;10.90;75.10
13992;DHT22;7070;53.586;9.692;2023-05-07T00:07:43;10.90;75.20
13992;DHT22;7070;53.586;9.692;2023-05-07T00:10:10;11.00;75.40
13992;DHT22;7070;53.586;9.692;2023-05-07T00:12:38;10.90;75.40
13992;DHT22;7070;53.586;9.692;2023-05-07T00:15:06;10.90;75.40
13992;DHT22;7070;53.586;9.692;2023-05-07T00:17:35;10.90;75.40
13992;DHT22;7070;53.586;9.692;2023-05-07T00:20:02;10.90;75.40
13992;DHT22;7070;53.586;9.692;2023-05-07T00:22:30;10.80;75.40
13992;DHT22;7070;53.586;9.692;2023-05-07T00:24:57;10.90;75.50
13992;DHT22;7070;53.586;9.692;2023-05-07T00:27:25;10.80;75.40
13992;DHT22;7070;53.586;9.692;2023-05-07T00:29:52;10.80;76.10
13992;DHT22;7070;53.586;9.692;2023-05-07T00:32:18;10.80;75.50
13992;DHT22;7070;53.586;9.692;2023-05-07T00:34:47;10.80;75.50
13992;DHT22;7070;53.586;9.692;2023-05-07T00:37:13;10.80;75.50
13992;DHT22;7070;53.586;9.692;2023-05-07T00:39:40;10.80;75.50
13992;DHT22;7070;53.586;9.692;2023-05-07T00:42:07;10.80;75.60
13992;DHT22;7070;53.586;9.692;2023-05-07T00:44:34;10.80;75.60
13992;DHT22;7070;53.586;9.692;2023-05-07T00:47:03;10.80;75.60
13992;DHT22;7070;53.586;9.692;2023-05-07T00:49:38;10.80;75.60
13992;DHT22;7070;53.586;9.692;2023-05-07T00:52:07;10.80;75.50
13992;DHT22;7070;53.586;9.692;2023-05-07T00:54:36;10.80;75.60
13992;DHT22;7070;53.586;9.692;2023-05-07T00:57:03;10.80;75.60
13992;DHT22;7070;53.586;9.692;2023-05-07T00:59:30;10.80;75.60
13992;DHT22;7070;53.586;9.692;2023-05-07T01:01:58;10.80;75.70
13992;DHT22;7070;53.586;9.692;2023-05-07T01:04:26;10.70;75.60
13992;DHT22;7070;53.586;9.692;2023-05-07T01:06:53;10.80;75.60
13992;DHT22;7070;53.586;9.692;2023-05-07T01:09:23;10.80;75.60
13992;DHT22;7070;53.586;9.692;2023-05-07T01:11:50;10.80;75.70
13992;DHT22;7070;53.586;9.692;2023-05-07T01:14:19;10.70;75.60
13992;DHT22;7070;53.586;9.692;2023-05-07T01:16:47;10.80;75.60
13992;DHT22;7070;53.586;9.692;2023-05-07T01:19:15;10.80;75.60
13992;DHT22;7070;53.586;9.692;2023-05-07T01:21:46;10.70;75.50
13992;DHT22;7070;53.586;9.692;2023-05-07T01:24:14;10.80;75.60
13992;DHT22;7070;53.586;9.692;2023-05-07T01:26:42;10.70;75.50
13992;DHT22;7070;53.586;9.692;2023-05-07T01:29:09;10.80;75.60
13992;DHT22;7070;53.586;9.692;2023-05-07T01:31:36;10.70;75.60
13992;DHT22;7070;53.586;9.692;2023-05-07T01:34:05;10.80;75.60
13992;DHT22;7070;53.586;9.692;2023-05-07T01:36:34;10.80;75.50
13992;DHT22;7070;53.586;9.692;2023-05-07T01:39:02;10.80;75.50
13992;DHT22;7070;53.586;9.692;2023-05-07T01:41:31;10.80;75.50
13992;DHT22;7070;53.586;9.692;2023-05-07T01:43:58;10.80;75.30
13992;DHT22;7070;53.586;9.692;2023-05-07T01:46:26;10.70;75.20
13992;DHT22;7070;53.586;9.692;2023-05-07T01:48:53;10.80;75.30
13992;DHT22;7070;53.586;9.692;2023-05-07T01:51:20;10.70;75.20
13992;DHT22;7070;53.586;9.692;2023-05-07T01:53:48;10.80;75.30
13992;DHT22;7070;53.586;9.692;2023-05-07T01:56:16;10.80;75.30
13992;DHT22;7070;53.586;9.692;2023-05-07T01:58:45;10.80;75.20
13992;DHT22;7070;53.586;9.692;2023-05-07T02:01:13;10.80;75.30
13992;DHT22;7070;53.586;9.692;2023-05-07T02:03:40;10.80;76.00
13992;DHT22;7070;53.586;9.692;2023-05-07T02:06:07;10.70;75.10
13992;DHT22;7070;53.586;9.692;2023-05-07T02:08:34;10.80;75.20
13992;DHT22;7070;53.586;9.692;2023-05-07T02:11:00;10.80;75.10
13992;DHT22;7070;53.586;9.692;2023-05-07T02:13:32;10.80;75.00
13992;DHT22;7070;53.586;9.692;2023-05-07T02:16:01;10.80;74.90
13992;DHT22;7070;53.586;9.692;2023-05-07T02:18:28;10.80;74.90
13992;DHT22;7070;53.586;9.692;2023-05-07T02:20:55;10.80;74.80
13992;DHT22;7070;53.586;9.692;2023-05-07T02:23:22;10.80;74.80
13992;DHT22;7070;53.586;9.692;2023-05-07T02:25:49;10.80;75.50
13992;DHT22;7070;53.586;9.692;2023-05-07T02:28:16;10.80;74.80
13992;DHT22;7070;53.586;9.692;2023-05-07T02:30:42;10.80;74.80
13992;DHT22;7070;53.586;9.692;2023-05-07T02:33:11;10.80;74.70
13992;DHT22;7070;53.586;9.692;2023-05-07T02:35:37;10.80;74.70
13992;DHT22;7070;53.586;9.692;2023-05-07T02:38:04;10.80;74.70
13992;DHT22;7070;53.586;9.692;2023-05-07T02:40:31;10.80;74.70
13992;DHT22;7070;53.586;9.692;2023-05-07T02:43:04;10.80;74.60
13992;DHT22;7070;53.586;9.692;2023-05-07T02:45:31;10.80;74.60
13992;DHT22;7070;53.586;9.692;2023-05-07T02:47:58;10.80;74.60
13992;DHT22;7070;53.586;9.692;2023-05-07T02:50:26;10.80;74.50
13992;DHT22;7070;53.586;9.692;2023-05-07T02:52:53;10.90;74.50
13992;DHT22;7070;53.586;9.692;2023-05-07T02:55:20;10.90;75.20
13992;DHT22;7070;53.586;9.692;2023-05-07T02:57:47;10.90;74.50
13992;DHT22;7070;53.586;9.692;2023-05-07T03:00:15;10.80;74.40
13992;DHT22;7070;53.586;9.692;2023-05-07T03:02:43;10.80;74.30
13992;DHT22;7070;53.586;9.692;2023-05-07T03:05:10;10.80;74.40
13992;DHT22;7070;53.586;9.692;2023-05-07T03:07:38;10.80;74.40
13992;DHT22;7070;53.586;9.692;2023-05-07T03:10:07;10.80;75.10
13992;DHT22;7070;53.586;9.692;2023-05-07T03:12:34;10.90;74.50
13992;DHT22;7070;53.586;9.692;2023-05-07T03:15:01;10.80;74.40
13992;DHT22;7070;53.586;9.692;2023-05-07T03:17:28;10.80;74.40
13992;DHT22;7070;53.586;9.692;2023-05-07T03:19:55;10.90;74.60
13992;DHT22;7070;53.586;9.692;2023-05-07T03:22:22;10.80;74.50
13992;DHT22;7070;53.586;9.692;2023-05-07T03:24:50;10.80;74.50
13992;DHT22;7070;53.586;9.692;2023-05-07T03:27:17;10.80;74.50
13992;DHT22;7070;53.586;9.692;2023-05-07T03:29:43;10.80;74.60
13992;DHT22;7070;53.586;9.692;2023-05-07T03:32:10;10.80;74.50
13992;DHT22;7070;53.586;9.692;2023-05-07T03:34:37;10.90;74.70
13992;DHT22;7070;53.586;9.692;2023-05-07T03:37:04;10.80;74.60
13992;DHT22;7070;53.586;9.692;2023-05-07T03:39:31;10.80;74.60
13992;DHT22;7070;53.586;9.692;2023-05-07T03:41:59;10.80;74.70
13992;DHT22;7070;53.586;9.692;2023-05-07T03:44:26;10.80;74.60
13992;DHT22;7070;53.586;9.692;2023-05-07T03:46:53;10.80;74.70
13992;DHT22;7070;53.586;9.692;2023-05-07T03:49:20;10.80;74.70
13992;DHT22;7070;53.586;9.692;2023-05-07T03:51:47;10.80;74.70
13992;DHT22;7070;53.586;9.692;2023-05-07T03:54:14;10.80;74.80
13992;DHT22;7070;53.586;9.692;2023-05-07T03:56:41;10.80;74.70
13992;DHT22;7070;53.586;9.692;2023-05-07T03:59:09;10.90;75.20
13992;DHT22;7070;53.586;9.692;2023-05-07T04:01:36;10.80;74.70
13992;DHT22;7070;53.586;9.692;2023-05-07T04:04:03;10.80;74.70
13992;DHT22;7070;53.586;9.692;2023-05-07T04:06:29;10.80;74.60
13992;DHT22;7070;53.586;9.692;2023-05-07T04:08:57;10.80;74.70
13992;DHT22;7070;53.586;9.692;2023-05-07T04:11:24;10.80;74.80
13992;DHT22;7070;53.586;9.692;2023-05-07T04:13:51;10.80;74.70
13992;DHT22;7070;53.586;9.692;2023-05-07T04:16:19;10.90;74.90
13992;DHT22;7070;53.586;9.692;2023-05-07T04:18:46;10.90;74.80
13992;DHT22;7070;53.586;9.692;2023-05-07T04:21:16;10.80;74.70
13992;DHT22;7070;53.586;9.692;2023-05-07T04:23:43;10.80;74.60
13992;DHT22;7070;53.586;9.692;2023-05-07T04:26:10;10.80;74.60
13992;DHT22;7070;53.586;9.692;2023-05-07T04:28:38;10.90;74.70
13992;DHT22;7070;53.586;9.692;2023-05-07T04:31:05;10.80;75.30
13992;DHT22;7070;53.586;9.692;2023-05-07T04:33:34;10.90;74.60
13992;DHT22;7070;53.586;9.692;2023-05-07T04:36:02;10.90;74.70
13992;DHT22;7070;53.586;9.692;2023-05-07T04:38:29;10.90;74.50
13992;DHT22;7070;53.586;9.692;2023-05-07T04:40:57;10.90;74.50
13992;DHT22;7070;53.586;9.692;2023-05-07T04:43:24;10.90;74.40
13992;DHT22;7070;53.586;9.692;2023-05-07T04:45:51;11.00;74.40
13992;DHT22;7070;53.586;9.692;2023-05-07T04:48:18;10.90;73.70
13992;DHT22;7070;53.586;9.692;2023-05-07T04:50:48;11.00;74.40
13992;DHT22;7070;53.586;9.692;2023-05-07T04:53:16;11.00;74.20
13992;DHT22;7070;53.586;9.692;2023-05-07T04:55:43;11.10;74.30
13992;DHT22;7070;53.586;9.692;2023-05-07T04:58:10;11.10;74.20
13992;DHT22;7070;53.586;9.692;2023-05-07T05:00:37;11.10;74.10
13992;DHT22;7070;53.586;9.692;2023-05-07T05:03:04;11.10;74.00
13992;DHT22;7070;53.586;9.692;2023-05-07T05:05:31;11.20;74.10
13992;DHT22;7070;53.586;9.692;2023-05-07T05:07:59;11.20;74.10
13992;DHT22;7070;53.586;9.692;2023-05-07T05:10:26;11.30;74.00
13992;DHT22;7070;53.586;9.692;2023-05-07T05:12:53;11.30;74.00
13992;DHT22;7070;53.586;9.692;2023-05-07T05:15:20;11.30;74.00
13992;DHT22;7070;53.586;9.692;2023-05-07T05:17:46;11.30;73.90
13992;DHT22;7070;53.586;9.692;2023-05-07T05:20:13;11.40;74.00
13992;DHT22;7070;53.586;9.692;2023-05-07T05:22:41;11.40;73.90
13992;DHT22;7070;53.586;9.692;2023-05-07T05:25:09;11.40;73.70
13992;DHT22;7070;53.586;9.692;2023-05-07T05:27:36;11.40;73.60
13992;DHT22;7070;53.586;9.692;2023-05-07T05:30:04;11.40;74.20
13992;DHT22;7070;53.586;9.692;2023-05-07T05:32:31;11.40;73.50
13992;DHT22;7070;53.586;9.692;2023-05-07T05:34:58;11.40;73.50
13992;DHT22;7070;53.586;9.692;2023-05-07T05:37:25;11.40;73.50
13992;DHT22;7070;53.586;9.692;2023-05-07T05:39:52;11.40;73.50
13992;DHT22;7070;53.586;9.692;2023-05-07T05:42:21;11.40;73.50
13992;DHT22;7070;53.586;9.692;2023-05-07T05:44:48;11.30;73.30
13992;DHT22;7070;53.586;9.692;2023-05-07T05:47:15;11.30;73.40
13992;DHT22;7070;53.586;9.692;2023-05-07T05:49:42;11.40;73.50
13992;DHT22;7070;53.586;9.692;2023-05-07T05:52:09;11.30;73.40
13992;DHT22;7070;53.586;9.692;2023-05-07T05:54:36;11.40;73.50
13992;DHT22;7070;53.586;9.692;2023-05-07T05:57:04;11.30;73.40
13992;DHT22;7070;53.586;9.692;2023-05-07T05:59:32;11.40;73.40
13992;DHT22;7070;53.586;9.692;2023-05-07T06:01:59;11.30;73.40
13992;DHT22;7070;53.586;9.692;2023-05-07T06:04:26;11.40;73.40
13992;DHT22;7070;53.586;9.692;2023-05-07T06:06:53;11.40;73.50
13992;DHT22;7070;53.586;9.692;2023-05-07T06:09:20;11.50;73.60
13992;DHT22;7070;53.586;9.692;2023-05-07T06:11:47;11.50;73.60
13992;DHT22;7070;53.586;9.692;2023-05-07T06:14:14;11.50;73.50
13992;DHT22;7070;53.586;9.692;2023-05-07T06:16:42;11.50;73.50
13992;DHT22;7070;53.586;9.692;2023-05-07T06:19:09;11.50;73.40
13992;DHT22;7070;53.586;9.692;2023-05-07T06:21:36;11.60;73.30
13992;DHT22;7070;53.586;9.692;2023-05-07T06:24:03;11.60;73.30
13992;DHT22;7070;53.586;9.692;2023-05-07T06:26:30;11.60;73.20
13992;DHT22;7070;53.586;9.692;2023-05-07T06:28:57;11.60;73.20
13992;DHT22;7070;53.586;9.692;2023-05-07T06:31:29;11.70;73.40
13992;DHT22;7070;53.586;9.692;2023-05-07T06:33:58;11.70;73.30
13992;DHT22;7070;53.586;9.692;2023-05-07T06:36:25;11.70;73.20
13992;DHT22;7070;53.586;9.692;2023-05-07T06:38:52;11.70;73.30
13992;DHT22;7070;53.586;9.692;2023-05-07T06:41:20;11.80;73.30
13992;DHT22;7070;53.586;9.692;2023-05-07T06:43:47;11.80;73.10
13992;DHT22;7070;53.586;9.692;2023-05-07T06:46:13;11.90;73.20
13992;DHT22;7070;53.586;9.692;2023-05-07T06:48:41;11.90;73.00
13992;DHT22;7070;53.586;9.692;2023-05-07T06:51:09;12.00;73.10
13992;DHT22;7070;53.586;9.692;2023-05-07T06:53:36;12.00;72.90
13992;DHT22;7070;53.586;9.692;2023-05-07T06:56:03;12.10;72.90
13992;DHT22;7070;53.586;9.692;2023-05-07T06:58:30;12.10;72.80
13992;DHT22;7070;53.586;9.692;2023-05-07T07:00:56;12.20;72.80
13992;DHT22;7070;53.586;9.692;2023-05-07T07:03:23;12.30;72.90
13992;DHT22;7070;53.586;9.692;2023-05-07T07:05:51;12.30;72.70
13992;DHT22;7070;53.586;9.692;2023-05-07T07:08:20;12.30;72.70
13992;DHT22;7070;53.586;9.692;2023-05-07T07:10:47;12.40;72.90
13992;DHT22;7070;53.586;9.692;2023-05-07T07:13:14;12.50;72.50
13992;DHT22;7070;53.586;9.692;2023-05-07T07:15:42;12.50;72.40
13992;DHT22;7070;53.586;9.692;2023-05-07T07:18:10;12.50;72.30
13992;DHT22;7070;53.586;9.692;2023-05-07T07:20:36;12.60;72.20
13992;DHT22;7070;53.586;9.692;2023-05-07T07:23:03;12.70;72.30
13992;DHT22;7070;53.586;9.692;2023-05-07T07:25:32;12.70;72.00
13992;DHT22;7070;53.586;9.692;2023-05-07T07:27:59;12.80;72.80
13992;DHT22;7070;53.586;9.692;2023-05-07T07:30:26;12.90;72.00
13992;DHT22;7070;53.586;9.692;2023-05-07T07:32:53;12.90;72.10
13992;DHT22;7070;53.586;9.692;2023-05-07T07:35:20;13.00;72.10
13992;DHT22;7070;53.586;9.692;2023-05-07T07:37:48;13.10;72.00
13992;DHT22;7070;53.586;9.692;2023-05-07T07:40:16;13.20;72.10
13992;DHT22;7070;53.586;9.692;2023-05-07T07:42:45;13.30;72.10
13992;DHT22;7070;53.586;9.692;2023-05-07T07:45:12;13.40;72.10
13992;DHT22;7070;53.586;9.692;2023-05-07T07:47:39;13.50;72.10
13992;DHT22;7070;53.586;9.692;2023-05-07T07:50:07;13.60;72.10
13992;DHT22;7070;53.586;9.692;2023-05-07T07:52:34;13.60;71.90
13992;DHT22;7070;53.586;9.692;2023-05-07T07:55:01;13.80;71.90
13992;DHT22;7070;53.586;9.692;2023-05-07T07:57:28;13.80;71.70
13992;DHT22;7070;53.586;9.692;2023-05-07T07:59:56;13.90;71.60
13992;DHT22;7070;53.586;9.692;2023-05-07T08:02:23;13.90;71.30
13992;DHT22;7070;53.586;9.692;2023-05-07T08:04:50;14.10;71.30
13992;DHT22;7070;53.586;9.692;2023-05-07T08:07:17;14.10;71.00
13992;DHT22;7070;53.586;9.692;2023-05-07T08:09:46;14.20;70.80
13992;DHT22;7070;53.586;9.692;2023-05-07T08:12:13;14.30;70.60
13992;DHT22;7070;53.586;9.692;2023-05-07T08:14:40;14.30;70.30
13992;DHT22;7070;53.586;9.692;2023-05-07T08:17:09;14.30;70.10
13992;DHT22;7070;53.586;9.692;2023-05-07T08:19:36;14.30;70.10
13992;DHT22;7070;53.586;9.692;2023-05-07T08:22:03;14.30;70.10
13992;DHT22;7070;53.586;9.692;2023-05-07T08:24:31;14.30;70.10
13992;DHT22;7070;53.586;9.692;2023-05-07T08:26:58;14.30;70.20
13992;DHT22;7070;53.586;9.692;2023-05-07T08:29:24;14.30;70.20
13992;DHT22;7070;53.586;9.692;2023-05-07T08:31:51;14.40;71.10
13992;DHT22;7070;53.586;9.692;2023-05-07T08:34:22;14.50;70.30
13992;DHT22;7070;53.586;9.692;2023-05-07T08:36:49;14.60;70.30
13992;DHT22;7070;53.586;9.692;2023-05-07T08:39:16;14.70;70.30
13992;DHT22;7070;53.586;9.692;2023-05-07T08:41:44;14.80;70.00
13992;DHT22;7070;53.586;9.692;2023-05-07T08:44:13;14.80;69.70
13992;DHT22;7070;53.586;9.692;2023-05-07T08:46:41;14.90;69.60
13992;DHT22;7070;53.586;9.692;2023-05-07T08:49:09;15.00;69.40
13992;DHT22;7070;53.586;9.692;2023-05-07T08:51:37;15.00;69.40
13992;DHT22;7070;53.586;9.692;2023-05-07T08:54:04;15.00;69.40
13992;DHT22;7070;53.586;9.692;2023-05-07T08:56:32;15.00;69.10
13992;DHT22;7070;53.586;9.692;2023-05-07T08:58:59;15.00;68.90
13992;DHT22;7070;53.586;9.692;2023-05-07T09:01:26;15.00;68.80
13992;DHT22;7070;53.586;9.692;2023-05-07T09:03:53;15.00;69.00
13992;DHT22;7070;53.586;9.692;2023-05-07T09:06:21;14.90;68.90
13992;DHT22;7070;53.586;9.692;2023-05-07T09:08:53;15.00;69.20
13992;DHT22;7070;53.586;9.692;2023-05-07T09:11:21;15.10;70.20
13992;DHT22;7070;53.586;9.692;2023-05-07T09:13:49;15.10;69.30
13992;DHT22;7070;53.586;9.692;2023-05-07T09:16:21;15.20;69.00
13992;DHT22;7070;53.586;9.692;2023-05-07T09:18:51;15.30;68.80
13992;DHT22;7070;53.586;9.692;2023-05-07T09:21:19;15.40;68.90
13992;DHT22;7070;53.586;9.692;2023-05-07T09:23:48;15.40;68.80
13992;DHT22;7070;53.586;9.692;2023-05-07T09:26:16;15.40;68.90
13992;DHT22;7070;53.586;9.692;2023-05-07T09:28:43;15.50;69.00
13992;DHT22;7070;53.586;9.692;2023-05-07T09:31:12;15.60;68.90
13992;DHT22;7070;53.586;9.692;2023-05-07T09:33:39;15.70;68.90
13992;DHT22;7070;53.586;9.692;2023-05-07T09:36:07;15.80;68.90
13992;DHT22;7070;53.586;9.692;2023-05-07T09:38:36;15.90;68.80
13992;DHT22;7070;53.586;9.692;2023-05-07T09:41:04;16.10;68.80
13992;DHT22;7070;53.586;9.692;2023-05-07T09:43:37;16.30;68.60
13992;DHT22;7070;53.586;9.692;2023-05-07T09:46:07;16.40;69.10
13992;DHT22;7070;53.586;9.692;2023-05-07T09:48:38;16.50;69.10
13992;DHT22;7070;53.586;9.692;2023-05-07T09:51:13;16.70;68.20
13992;DHT22;7070;53.586;9.692;2023-05-07T09:53:43;16.80;67.90
13992;DHT22;7070;53.586;9.692;2023-05-07T09:56:13;16.90;67.80
13992;DHT22;7070;53.586;9.692;2023-05-07T09:58:42;16.90;67.80
13992;DHT22;7070;53.586;9.692;2023-05-07T10:01:10;17.10;67.70
13992;DHT22;7070;53.586;9.692;2023-05-07T10:03:40;17.10;67.30
13992;DHT22;7070;53.586;9.692;2023-05-07T10:06:08;17.20;67.20
13992;DHT22;7070;53.586;9.692;2023-05-07T10:08:36;17.30;67.00
13992;DHT22;7070;53.586;9.692;2023-05-07T10:11:04;17.30;66.80
13992;DHT22;7070;53.586;9.692;2023-05-07T10:13:31;17.40;66.60
13992;DHT22;7070;53.586;9.692;2023-05-07T10:16:00;17.40;66.60
13992;DHT22;7070;53.586;9.692;2023-05-07T10:18:28;17.50;66.60
13992;DHT22;7070;53.586;9.692;2023-05-07T10:21:01;17.50;66.60
13992;DHT22;7070;53.586;9.692;2023-05-07T10:23:29;17.60;66.70
13992;DHT22;7070;53.586;9.692;2023-05-07T10:25:58;17.60;66.30
13992;DHT22;7070;53.586;9.692;2023-05-07T10:28:28;17.70;66.30
13992;DHT22;7070;53.586;9.692;2023-05-07T10:31:08;17.70;66.10
13992;DHT22;7070;53.586;9.692;2023-05-07T10:33:40;17.70;66.30
13992;DHT22;7070;53.586;9.692;2023-05-07T10:36:09;17.70;65.90
13992;DHT22;7070;53.586;9.692;2023-05-07T10:38:36;17.70;65.70
13992;DHT22;7070;53.586;9.692;2023-05-07T10:41:03;17.70;65.80
13992;DHT22;7070;53.586;9.692;2023-05-07T10:43:40;17.70;65.90
13992;DHT22;7070;53.586;9.692;2023-05-07T10:46:15;17.70;66.20
13992;DHT22;7070;53.586;9.692;2023-05-07T10:49:06;17.80;66.10
13992;DHT22;7070;53.586;9.692;2023-05-07T10:51:35;17.80;66.10
13992;DHT22;7070;53.586;9.692;2023-05-07T10:54:21;17.80;65.80
13992;DHT22;7070;53.586;9.692;2023-05-07T10:56:49;17.90;66.00
13992;DHT22;7070;53.586;9.692;2023-05-07T10:59:35;17.90;65.20
13992;DHT22;7070;53.586;9.692;2023-05-07T11:02:08;17.90;65.70
13992;DHT22;7070;53.586;9.692;2023-05-07T11:04:37;18.00;65.80
13992;DHT22;7070;53.586;9.692;2023-05-07T11:07:28;18.10;65.70
13992;DHT22;7070;53.586;9.692;2023-05-07T11:10:00;18.10;65.90
13992;DHT22;7070;53.586;9.692;2023-05-07T11:12:51;18.10;65.90
13992;DHT22;7070;53.586;9.692;2023-05-07T11:15:43;18.20;65.80
13992;DHT22;7070;53.586;9.692;2023-05-07T11:18:14;18.20;65.50
13992;DHT22;7070;53.586;9.692;2023-05-07T11:20:52;18.20;65.90
13992;DHT22;7070;53.586;9.692;2023-05-07T11:26:44;18.30;65.20
13992;DHT22;7070;53.586;9.692;2023-05-07T11:29:12;18.30;65.00
13992;DHT22;7070;53.586;9.692;2023-05-07T11:31:40;18.30;64.80
13992;DHT22;7070;53.586;9.692;2023-05-07T11:34:08;18.30;65.00
13992;DHT22;7070;53.586;9.692;2023-05-07T11:36:41;18.30;65.00
13992;DHT22;7070;53.586;9.692;2023-05-07T11:39:24;18.40;65.90
13992;DHT22;7070;53.586;9.692;2023-05-07T11:41:51;18.40;65.00
13992;DHT22;7070;53.586;9.692;2023-05-07T11:44:18;18.40;64.30
13992;DHT22;7070;53.586;9.692;2023-05-07T11:46:45;18.40;65.10
13992;DHT22;7070;53.586;9.692;2023-05-07T11:49:13;18.50;64.40
13992;DHT22;7070;53.586;9.692;2023-05-07T11:51:40;18.50;64.70
13992;DHT22;7070;53.586;9.692;2023-05-07T11:54:08;18.50;64.30
13992;DHT22;7070;53.586;9.692;2023-05-07T11:56:37;18.50;64.20
13992;DHT22;7070;53.586;9.692;2023-05-07T11:59:04;18.50;64.30
13992;DHT22;7070;53.586;9.692;2023-05-07T12:01:31;18.60;64.40
13992;DHT22;7070;53.586;9.692;2023-05-07T12:03:58;18.60;64.30
13992;DHT22;7070;53.586;9.692;2023-05-07T12:06:30;18.70;64.50
13992;DHT22;7070;53.586;9.692;2023-05-07T12:08:57;18.70;64.40
13992;DHT22;7070;53.586;9.692;2023-05-07T12:11:25;18.70;64.20
13992;DHT22;7070;53.586;9.692;2023-05-07T12:13:53;18.70;64.00
13992;DHT22;7070;53.586;9.692;2023-05-07T12:16:20;18.80;64.10
13992;DHT22;7070;53.586;9.692;2023-05-07T12:18:48;18.80;63.90
13992;DHT22;7070;53.586;9.692;2023-05-07T12:21:15;18.80;63.70
13992;DHT22;7070;53.586;9.692;2023-05-07T12:23:45;18.80;63.70
13992;DHT22;7070;53.586;9.692;2023-05-07T12:26:12;18.80;63.80
13992;DHT22;7070;53.586;9.692;2023-05-07T12:28:39;18.70;63.30
13992;DHT22;7070;53.586;9.692;2023-05-07T12:31:06;18.70;63.40
13992;DHT22;7070;53.586;9.692;2023-05-07T12:33:34;18.70;63.40
13992;DHT22;7070;53.586;9.692;2023-05-07T12:36:04;18.70;63.30
13992;DHT22;7070;53.586;9.692;2023-05-07T12:38:36;18.70;63.50
13992;DHT22;7070;53.586;9.692;2023-05-07T12:41:06;18.60;63.60
13992;DHT22;7070;53.586;9.692;2023-05-07T12:43:33;18.60;63.80
13992;DHT22;7070;53.586;9.692;2023-05-07T12:46:04;18.60;63.80
13992;DHT22;7070;53.586;9.692;2023-05-07T12:48:32;18.60;63.80
13992;DHT22;7070;53.586;9.692;2023-05-07T12:51:00;18.60;63.50
13992;DHT22;7070;53.586;9.692;2023-05-07T12:53:28;18.60;63.90
13992;DHT22;7070;53.586;9.692;2023-05-07T12:55:58;18.70;64.00
13992;DHT22;7070;53.586;9.692;2023-05-07T12:58:27;18.70;64.00
13992;DHT22;7070;53.586;9.692;2023-05-07T13:00:55;18.70;63.80
13992;DHT22;7070;53.586;9.692;2023-05-07T13:03:26;18.70;63.60
13992;DHT22;7070;53.586;9.692;2023-05-07T13:05:55;18.80;63.80
13992;DHT22;7070;53.586;9.692;2023-05-07T13:08:26;18.80;63.70
13992;DHT22;7070;53.586;9.692;2023-05-07T13:10:53;18.80;63.70
13992;DHT22;7070;53.586;9.692;2023-05-07T13:13:20;18.80;63.20
13992;DHT22;7070;53.586;9.692;2023-05-07T13:15:49;18.80;63.10
13992;DHT22;7070;53.586;9.692;2023-05-07T13:18:15;18.80;63.60
13992;DHT22;7070;53.586;9.692;2023-05-07T13:20:42;18.70;63.20
13992;DHT22;7070;53.586;9.692;2023-05-07T13:23:09;18.80;63.30
13992;DHT22;7070;53.586;9.692;2023-05-07T13:25:36;18.70;63.00
13992;DHT22;7070;53.586;9.692;2023-05-07T13:28:03;18.70;63.20
13992;DHT22;7070;53.586;9.692;2023-05-07T13:30:30;18.70;63.20
13992;DHT22;7070;53.586;9.692;2023-05-07T13:32:58;18.70;63.20
13992;DHT22;7070;53.586;9.692;2023-05-07T13:35:25;18.70;63.30
13992;DHT22;7070;53.586;9.692;2023-05-07T13:37:52;18.70;63.30
13992;DHT22;7070;53.586;9.692;2023-05-07T13:40:20;18.70;63.30
13992;DHT22;7070;53.586;9.692;2023-05-07T13:42:47;18.70;63.20
13992;DHT22;7070;53.586;9.692;2023-05-07T13:45:14;18.70;63.00
13992;DHT22;7070;53.586;9.692;2023-05-07T13:47:41;18.70;63.10
13992;DHT22;7070;53.586;9.692;2023-05-07T13:50:10;18.70;63.10
13992;DHT22;7070;53.586;9.692;2023-05-07T13:52:40;18.70;63.20
13992;DHT22;7070;53.586;9.692;2023-05-07T13:55:08;18.70;63.10
13992;DHT22;7070;53.586;9.692;2023-05-07T13:57:36;18.70;63.00
13992;DHT22;7070;53.586;9.692;2023-05-07T14:00:04;18.70;63.20
13992;DHT22;7070;53.586;9.692;2023-05-07T14:02:32;18.60;62.90
13992;DHT22;7070;53.586;9.692;2023-05-07T14:04:58;18.60;62.90
13992;DHT22;7070;53.586;9.692;2023-05-07T14:07:27;18.60;63.10
13992;DHT22;7070;53.586;9.692;2023-05-07T14:09:54;18.50;63.00
13992;DHT22;7070;53.586;9.692;2023-05-07T14:12:21;18.40;63.20
13992;DHT22;7070;53.586;9.692;2023-05-07T14:14:47;18.30;63.00
13992;DHT22;7070;53.586;9.692;2023-05-07T14:17:15;18.30;63.20
13992;DHT22;7070;53.586;9.692;2023-05-07T14:19:42;18.30;63.00
13992;DHT22;7070;53.586;9.692;2023-05-07T14:22:09;18.20;63.10
13992;DHT22;7070;53.586;9.692;2023-05-07T14:24:37;18.20;63.30
13992;DHT22;7070;53.586;9.692;2023-05-07T14:27:05;18.10;63.20
13992;DHT22;7070;53.586;9.692;2023-05-07T14:29:32;18.10;63.40
13992;DHT22;7070;53.586;9.692;2023-05-07T14:32:00;18.10;63.50
13992;DHT22;7070;53.586;9.692;2023-05-07T14:34:27;18.10;63.40
13992;DHT22;7070;53.586;9.692;2023-05-07T14:36:54;18.10;63.30
13992;DHT22;7070;53.586;9.692;2023-05-07T14:39:21;18.10;64.10
13992;DHT22;7070;53.586;9.692;2023-05-07T14:41:50;18.00;63.30
13992;DHT22;7070;53.586;9.692;2023-05-07T14:44:16;18.00;63.40
13992;DHT22;7070;53.586;9.692;2023-05-07T14:46:43;18.00;63.30
13992;DHT22;7070;53.586;9.692;2023-05-07T14:49:10;18.00;63.40
13992;DHT22;7070;53.586;9.692;2023-05-07T14:51:42;18.00;63.50
13992;DHT22;7070;53.586;9.692;2023-05-07T14:54:09;18.00;63.60
13992;DHT22;7070;53.586;9.692;2023-05-07T14:56:36;18.10;63.70
13992;DHT22;7070;53.586;9.692;2023-05-07T14:59:04;18.10;64.00
13992;DHT22;7070;53.586;9.692;2023-05-07T15:01:31;18.20;64.20
13992;DHT22;7070;53.586;9.692;2023-05-07T15:03:58;18.30;64.10
13992;DHT22;7070;53.586;9.692;2023-05-07T15:06:26;18.30;64.00
13992;DHT22;7070;53.586;9.692;2023-05-07T15:08:53;18.50;64.20
13992;DHT22;7070;53.586;9.692;2023-05-07T15:11:20;18.50;64.10
13992;DHT22;7070;53.586;9.692;2023-05-07T15:13:46;18.70;64.00
13992;DHT22;7070;53.586;9.692;2023-05-07T15:16:15;18.80;63.80
13992;DHT22;7070;53.586;9.692;2023-05-07T15:18:42;18.80;63.80
13992;DHT22;7070;53.586;9.692;2023-05-07T15:21:09;18.90;64.40
13992;DHT22;7070;53.586;9.692;2023-05-07T15:23:36;19.00;63.30
13992;DHT22;7070;53.586;9.692;2023-05-07T15:26:04;19.00;63.10
13992;DHT22;7070;53.586;9.692;2023-05-07T15:28:33;19.10;63.10
13992;DHT22;7070;53.586;9.692;2023-05-07T15:31:00;19.10;63.10
13992;DHT22;7070;53.586;9.692;2023-05-07T15:33:28;19.20;63.00
13992;DHT22;7070;53.586;9.692;2023-05-07T15:35:55;19.20;63.00
13992;DHT22;7070;53.586;9.692;2023-05-07T15:38:24;19.20;62.80
13992;DHT22;7070;53.586;9.692;2023-05-07T15:40:51;19.20;62.90
13992;DHT22;7070;53.586;9.692;2023-05-07T15:43:18;19.20;62.80
13992;DHT22;7070;53.586;9.692;2023-05-07T15:45:45;19.20;62.80
13992;DHT22;7070;53.586;9.692;2023-05-07T15:48:11;19.30;62.80
13992;DHT22;7070;53.586;9.692;2023-05-07T15:50:40;19.30;62.80
13992;DHT22;7070;53.586;9.692;2023-05-07T15:53:07;19.30;62.90